Windfall, Indiana
Current Conditions -  °F | °C
As of 5:15 PM on Friday 31 Oct 2014 (Local Time) from KOKK Reporting Station
Overcast Overcast  
Wind Chill: -2°   Ceiling: 1900
Heat Index:   Visibility: 10mi
Dew Point:   Wind: 21mph
Humidity: 81%   Direction: 360°N
Pressure: 30"   Gusts: 31mph
Location:  40.36°N, 85.96°W
Report Text: KOKK 312115Z AUTO 36018G27KT 10SM SCT012 OVC019 04/01 A3000 RMK AO1
Loading
Personal Weather Stations






























Interactive Weather Map
Tropical Storm Tracking
New forecast layout! Learn more

10-Day Weather Forecast

Advertisements
Track Severe Weather on mobile